createdAt,value
2024-04-30T00:05:57.007Z,15.7
2024-04-30T00:15:57.221Z,15.7
2024-04-30T00:25:57.395Z,15.7
2024-04-30T00:35:57.722Z,15.6
2024-04-30T00:45:57.806Z,15.4
2024-04-30T00:55:58.004Z,15.3
2024-04-30T01:05:58.226Z,15.4
2024-04-30T01:15:58.468Z,15.4
2024-04-30T01:25:58.600Z,15.2
2024-04-30T01:35:58.831Z,15.3
2024-04-30T01:45:59.055Z,15.2
2024-04-30T01:55:59.234Z,15
2024-04-30T02:05:59.419Z,14.8
2024-04-30T02:15:59.626Z,14.8
2024-04-30T02:25:59.817Z,14.8
2024-04-30T02:35:59.999Z,14.7
2024-04-30T02:46:00.270Z,14.7
2024-04-30T02:56:00.495Z,14.6
2024-04-30T03:06:00.598Z,14.5
2024-04-30T03:16:00.832Z,14.4
2024-04-30T03:26:00.998Z,14.2
2024-04-30T03:36:01.210Z,14
2024-04-30T03:46:01.572Z,13.6
2024-04-30T03:56:01.686Z,13.5
2024-04-30T04:06:01.839Z,13.5
2024-04-30T04:16:02.038Z,13.3
2024-04-30T04:26:02.206Z,13.1
2024-04-30T04:36:02.427Z,12.9
2024-04-30T04:46:02.684Z,12.9
2024-04-30T04:56:02.854Z,12.9
2024-04-30T05:06:03.039Z,13
2024-04-30T05:16:03.225Z,12.9
2024-04-30T05:26:03.417Z,13
2024-04-30T05:36:03.621Z,13.1
2024-04-30T05:46:03.867Z,13.3
2024-04-30T05:56:04.021Z,13.7
2024-04-30T06:06:04.223Z,14.2
2024-04-30T06:26:04.695Z,15.3
2024-04-30T06:36:04.817Z,15.4
2024-04-30T06:46:05.067Z,16
2024-04-30T06:56:05.216Z,16.6
2024-04-30T07:06:05.447Z,17
2024-04-30T07:26:05.905Z,18.1
2024-04-30T07:36:06.033Z,18.3
2024-04-30T07:46:06.251Z,18.7
2024-04-30T07:56:06.470Z,19.3
2024-04-30T08:06:10.304Z,19.6
2024-04-30T08:16:06.883Z,20.2
2024-04-30T08:26:07.029Z,20.2
2024-04-30T08:36:07.258Z,20.6
2024-04-30T08:46:07.500Z,20.9
2024-04-30T08:56:10.732Z,21.3
2024-04-30T09:06:07.830Z,21.3
2024-04-30T09:16:08.088Z,22.2
2024-04-30T09:26:08.214Z,22.6
2024-04-30T09:36:09.464Z,22.4
2024-04-30T09:46:08.805Z,22.7
2024-04-30T09:56:08.813Z,22.9
2024-04-30T10:06:09.005Z,22.7
2024-04-30T10:16:09.228Z,22.8
2024-04-30T10:26:09.413Z,22.9
2024-04-30T10:36:09.619Z,23
2024-04-30T10:46:09.816Z,23.1
2024-04-30T10:56:10.113Z,23.7
2024-04-30T11:16:11.230Z,23.8
2024-04-30T11:26:10.606Z,23.7
2024-04-30T11:36:10.820Z,23.6
2024-04-30T11:46:10.987Z,24
2024-04-30T11:56:11.210Z,24.3
2024-04-30T12:16:11.626Z,25
2024-04-30T12:26:11.790Z,24.8
2024-04-30T12:36:11.993Z,25.2
2024-04-30T12:46:12.302Z,25.2
2024-04-30T12:56:12.388Z,25.2
2024-04-30T13:16:12.847Z,25.7
2024-04-30T13:26:12.985Z,25.9
2024-04-30T13:46:13.418Z,25.9
2024-04-30T13:56:13.651Z,26.3
2024-04-30T14:06:13.785Z,26.5
2024-04-30T14:16:13.990Z,26.1
2024-04-30T14:26:14.185Z,26
2024-04-30T14:36:14.385Z,26
2024-04-30T14:46:14.647Z,26.1
2024-04-30T14:56:14.787Z,26.2
2024-04-30T15:06:14.994Z,26.1
2024-04-30T15:16:15.232Z,25.9
2024-04-30T15:26:15.471Z,25.7
2024-04-30T15:36:15.624Z,26.1
2024-04-30T15:46:15.808Z,25.9
2024-04-30T15:56:17.094Z,25.9
2024-04-30T16:06:16.180Z,25.9
2024-04-30T16:16:18.291Z,25.8
2024-04-30T16:26:16.573Z,25.4
2024-04-30T16:36:16.809Z,25.1
2024-04-30T16:46:16.983Z,24.9
2024-04-30T16:56:17.213Z,24.7
2024-04-30T17:06:17.412Z,24.7
2024-04-30T17:26:17.784Z,24.4
2024-04-30T17:36:17.983Z,24.4
2024-04-30T17:56:18.406Z,23.8
2024-04-30T18:06:18.675Z,23.6
2024-04-30T18:16:18.788Z,23.3
2024-04-30T18:26:19.003Z,23
2024-04-30T18:36:19.181Z,22.7
2024-04-30T18:46:19.404Z,22.4
2024-04-30T18:56:19.577Z,22
2024-04-30T19:06:19.871Z,21.7
2024-04-30T19:16:19.962Z,21.4
2024-04-30T19:26:20.236Z,21.2
2024-04-30T19:36:20.428Z,21
2024-04-30T19:46:20.571Z,20.9
2024-04-30T19:56:20.777Z,20.7
2024-04-30T20:06:21.016Z,20.5
2024-04-30T20:26:21.363Z,20.3
2024-04-30T20:36:21.592Z,20.3
2024-04-30T20:46:21.788Z,20.1
2024-04-30T20:56:21.985Z,20
2024-04-30T21:06:22.185Z,19.9
2024-04-30T21:16:22.350Z,19.7
2024-04-30T21:26:22.568Z,19.6
2024-04-30T21:36:22.813Z,19.5
2024-04-30T21:46:22.965Z,19.3
2024-04-30T21:56:23.174Z,19.2
2024-04-30T22:06:23.415Z,18.9
2024-04-30T22:16:23.567Z,18.5
2024-04-30T22:26:23.748Z,18.2
2024-04-30T22:36:23.949Z,18.1
2024-04-30T23:06:24.609Z,17.1
2024-04-30T23:16:24.747Z,16.9
2024-04-30T23:26:24.948Z,16.8
2024-04-30T23:36:25.195Z,16.5
2024-04-30T23:46:25.402Z,16.7
2024-04-30T23:56:25.549Z,16.7
